KCVO/CVO METAR and TAF weather

Enter ICAO airport designator
Station Type Date Time Source
KCVO METAR 2018/12/12 15:56 UTC NOAA

KCVO 121556Z AUTO 15005KT 5SM BR CLR 03/02 A3039 RMK AO2 SLP293 T00280022


Station Type Date Time Source
KCVO Decoded METAR 2018/12/12 15:56 UTC NOAA

Corvallis, Corvallis Municipal Airport, OR, United States (KCVO) 44-30N 123-17W
Dec 12, 2018 - 10:56 AM EST / 2018.12.12 1556 UTC
Wind: from the SSE (150 degrees) at 6 MPH (5 KT):0
Visibility: 5 mile(s):0
Sky conditions: clear
Weather: mist
Temperature: 37.0 F (2.8 C)
Dew Point: 36.0 F (2.2 C)
Relative Humidity: 95%
Pressure (altimeter): 30.39 in. Hg (1029 hPa)
ob: KCVO 121556Z AUTO 15005KT 5SM BR CLR 03/02 A3039 RMK AO2 SLP293 T00280022
cycle: 16

Station Type Date Time Source
KCVO TAF UTC NOAA

Error!


Example: see airport list